Terminal Aerodrome Forecast
Issued by NWS Lake Charles, LA

Home | Current Version | Previous Version | Text Only | Print | Product List | Glossary On
Versions: 1 2 3 4 5 6 7 8 9 10 11 12 13 14 15 16 17 18 19 20 21 22 23
667
FTUS44 KLCH 250213 AAA
TAFBPT
TAF AMD
KBPT 250213Z 2502/2524 26006KT P6SM SCT025
     FM250300 32012KT P6SM SKC
     FM250500 36012KT P6SM SKC=

USA.gov is the U.S. government's official web portal to all federal, state and local government web resources and services.